createdAt,value
2018-04-06T00:01:44.623Z,88.70
2018-04-06T00:04:12.681Z,91.10
2018-04-06T00:06:40.688Z,89.20
2018-04-06T00:09:08.357Z,95.50
2018-04-06T00:11:36.422Z,93.20
2018-04-06T00:14:04.827Z,89.60
2018-04-06T00:16:33.280Z,89.80
2018-04-06T00:19:01.664Z,89.40
2018-04-06T00:21:29.384Z,96.70
2018-04-06T00:23:57.034Z,96.60
2018-04-06T00:26:24.701Z,92.90
2018-04-06T00:28:53.178Z,89.30
2018-04-06T00:31:21.224Z,89.50
2018-04-06T00:33:48.900Z,96.80
2018-04-06T00:36:17.649Z,89.70
2018-04-06T00:38:45.713Z,89.90
2018-04-06T00:41:13.412Z,96.70
2018-04-06T00:43:42.549Z,89.70
2018-04-06T00:46:11.331Z,89.70
2018-04-06T00:48:39.011Z,96.60
2018-04-06T00:51:06.739Z,96.70
2018-04-06T00:53:46.661Z,91.20
2018-04-06T00:56:14.774Z,89.70
2018-04-06T00:58:42.391Z,96.40
2018-04-06T01:01:10.076Z,95.80
2018-04-06T01:03:38.523Z,90.20
2018-04-06T01:06:06.942Z,90.10
2018-04-06T01:08:35.360Z,90.50
2018-04-06T01:11:03.011Z,97.00
2018-04-06T01:13:30.680Z,95.50
2018-04-06T01:15:59.500Z,90.40
2018-04-06T01:18:27.622Z,92.20
2018-04-06T01:20:56.035Z,90.70
2018-04-06T01:23:23.699Z,97.70
2018-04-06T01:25:51.342Z,97.70
2018-04-06T01:28:19.765Z,90.80
2018-04-06T01:30:48.222Z,90.80
2018-04-06T01:33:16.703Z,90.70
2018-04-06T01:35:44.365Z,96.20
2018-04-06T01:38:12.006Z,97.50
2018-04-06T01:40:39.686Z,97.50
2018-04-06T01:43:08.109Z,90.70
2018-04-06T01:45:36.517Z,91.00
2018-04-06T01:48:04.156Z,97.40
2018-04-06T01:50:33.391Z,90.60
2018-04-06T01:53:01.038Z,94.10
2018-04-06T01:55:29.852Z,90.60
2018-04-06T01:57:57.552Z,97.50
2018-04-06T02:00:25.188Z,97.50
2018-04-06T02:02:53.612Z,90.80
2018-04-06T02:05:22.056Z,90.90
2018-04-06T02:07:49.761Z,96.40
2018-04-06T02:10:17.446Z,97.60
2018-04-06T02:12:45.906Z,90.80
2018-04-06T02:15:13.557Z,97.30
2018-04-06T02:17:41.967Z,91.00
2018-04-06T02:20:09.580Z,97.40
2018-04-06T02:22:37.668Z,91.60
2018-04-06T02:25:05.785Z,90.40
2018-04-06T02:27:34.160Z,90.10
2018-04-06T02:30:02.586Z,90.70
2018-04-06T02:32:31.074Z,91.00
2018-04-06T02:34:59.921Z,91.20
2018-04-06T02:37:28.003Z,90.80
2018-04-06T02:39:56.258Z,97.80
2018-04-06T02:42:23.946Z,96.60
2018-04-06T02:44:52.049Z,93.40
2018-04-06T02:47:20.476Z,91.40
2018-04-06T02:49:48.533Z,91.80
2018-04-06T02:52:17.382Z,91.50
2018-04-06T02:54:45.818Z,92.00
2018-04-06T02:57:13.932Z,93.00
2018-04-06T02:59:42.352Z,91.60
2018-04-06T03:02:10.837Z,91.50
2018-04-06T03:04:39.213Z,91.90
2018-04-06T03:07:07.266Z,91.60
2018-04-06T03:09:35.740Z,91.70
2018-04-06T03:12:03.398Z,98.30
2018-04-06T03:14:31.811Z,91.90
2018-04-06T03:17:00.226Z,91.60
2018-04-06T03:19:28.371Z,93.70
2018-04-06T03:21:56.010Z,98.20
2018-04-06T03:24:23.620Z,94.60
2018-04-06T03:26:51.666Z,98.10
2018-04-06T03:29:19.314Z,98.10
2018-04-06T03:31:47.721Z,91.40
2018-04-06T03:34:16.139Z,91.30
2018-04-06T03:36:44.584Z,91.70
2018-04-06T03:39:13.072Z,91.30
2018-04-06T03:41:41.105Z,91.10
2018-04-06T03:44:09.138Z,91.20
2018-04-06T03:46:37.612Z,91.20
2018-04-06T03:49:05.298Z,97.70
2018-04-06T03:51:32.988Z,97.90
2018-04-06T03:54:01.394Z,91.50
2018-04-06T03:56:29.511Z,97.80
2018-04-06T03:58:58.322Z,91.40
2018-04-06T04:01:27.514Z,91.50
2018-04-06T04:03:55.635Z,91.50
2018-04-06T04:06:23.312Z,98.10
2018-04-06T04:08:51.029Z,98.10
2018-04-06T04:11:19.113Z,90.90
2018-04-06T04:13:47.203Z,90.90
2018-04-06T04:16:14.902Z,95.10
2018-04-06T04:18:43.022Z,92.50
2018-04-06T04:21:10.674Z,98.10
2018-04-06T04:23:39.102Z,91.50
2018-04-06T04:26:07.524Z,91.50
2018-04-06T04:28:35.942Z,91.80
2018-04-06T04:31:05.133Z,91.80
2018-04-06T04:33:32.768Z,98.30
2018-04-06T04:36:01.166Z,91.20
2018-04-06T04:38:29.604Z,91.00
2018-04-06T04:40:57.247Z,97.90
2018-04-06T04:43:25.679Z,91.20
2018-04-06T04:45:54.105Z,91.60
2018-04-06T04:48:22.573Z,92.20
2018-04-06T04:50:50.266Z,98.60
2018-04-06T04:53:18.665Z,92.10
2018-04-06T04:55:46.744Z,93.80
2018-04-06T04:58:14.375Z,98.90
2018-04-06T05:00:42.429Z,91.90
2018-04-06T05:03:10.135Z,96.20
2018-04-06T05:05:38.618Z,91.90
2018-04-06T05:08:07.037Z,91.80
2018-04-06T05:10:34.691Z,98.50
2018-04-06T05:13:02.804Z,91.60
2018-04-06T05:15:30.809Z,91.40
2018-04-06T05:17:58.489Z,95.00
2018-04-06T05:20:26.170Z,98.30
2018-04-06T05:22:54.643Z,91.40
2018-04-06T05:25:23.783Z,91.30
2018-04-06T05:27:51.478Z,98.30
2018-04-06T05:30:19.147Z,98.30
2018-04-06T05:32:47.206Z,91.30
2018-04-06T05:35:14.949Z,98.00
2018-04-06T05:37:42.996Z,92.70
2018-04-06T05:40:11.074Z,91.40
2018-04-06T05:42:39.508Z,91.90
2018-04-06T05:45:07.533Z,91.40
2018-04-06T05:47:35.921Z,91.80
2018-04-06T05:50:04.420Z,91.50
2018-04-06T05:52:32.857Z,91.50
2018-04-06T05:55:01.240Z,91.40
2018-04-06T05:57:29.682Z,91.60
2018-04-06T05:59:58.138Z,97.90
2018-04-06T06:02:26.548Z,91.20
2018-04-06T06:04:54.911Z,93.40
2018-04-06T06:07:23.334Z,91.00
2018-04-06T06:09:51.776Z,91.20
2018-04-06T06:12:19.440Z,97.30
2018-04-06T06:14:47.512Z,91.10
2018-04-06T06:17:16.012Z,90.70
2018-04-06T06:19:43.704Z,97.10
2018-04-06T06:22:11.390Z,97.10
2018-04-06T06:24:39.841Z,90.30
2018-04-06T06:27:07.518Z,96.60
2018-04-06T06:29:35.177Z,96.40
2018-04-06T06:32:02.877Z,96.00
2018-04-06T06:34:31.300Z,89.50
2018-04-06T06:36:59.722Z,89.70
2018-04-06T06:39:27.359Z,95.30
2018-04-06T06:41:55.073Z,92.00
2018-04-06T06:44:23.890Z,86.90
2018-04-06T06:46:52.669Z,86.80
2018-04-06T06:49:21.392Z,90.70
2018-04-06T06:51:49.034Z,93.80
2018-04-06T06:54:17.174Z,84.30
2018-04-06T06:56:45.237Z,89.50
2018-04-06T06:59:13.477Z,84.50
2018-04-06T07:01:41.223Z,93.70
2018-04-06T07:04:10.048Z,84.40
2018-04-06T07:06:38.660Z,90.00
2018-04-06T07:09:07.574Z,88.60
2018-04-06T07:11:36.011Z,84.60
2018-04-06T07:16:33.106Z,82.00
2018-04-06T07:19:02.244Z,81.60
2018-04-06T07:21:30.293Z,78.80
2018-04-06T07:23:58.748Z,79.10
2018-04-06T07:26:27.218Z,78.00
2018-04-06T07:28:55.276Z,78.00
2018-04-06T07:31:23.824Z,77.10
2018-04-06T07:33:51.499Z,88.70
2018-04-06T07:36:20.030Z,75.60
2018-04-06T07:38:47.706Z,87.10
2018-04-06T07:41:15.891Z,86.90
2018-04-06T07:43:44.307Z,74.50
2018-04-06T07:46:12.388Z,72.80
2018-04-06T07:48:40.118Z,85.20
2018-04-06T07:51:08.556Z,71.70
2018-04-06T07:53:36.607Z,73.80
2018-04-06T07:56:04.270Z,84.70
2018-04-06T07:58:31.969Z,82.10
2018-04-06T08:00:59.630Z,79.50
2018-04-06T08:03:27.786Z,68.10
2018-04-06T08:05:55.436Z,79.50
2018-04-06T08:08:23.129Z,80.00
2018-04-06T08:10:50.837Z,79.70
2018-04-06T08:13:18.888Z,66.10
2018-04-06T08:15:46.655Z,78.60
2018-04-06T08:18:15.084Z,64.50
2018-04-06T08:20:42.775Z,77.60
2018-04-06T08:23:11.803Z,65.10
2018-04-06T08:25:39.872Z,67.50
2018-04-06T08:28:07.945Z,67.30
2018-04-06T08:30:35.560Z,74.20
2018-04-06T08:33:03.647Z,62.50
2018-04-06T08:35:32.072Z,64.50
2018-04-06T08:38:00.652Z,62.90
2018-04-06T08:40:28.306Z,75.50
2018-04-06T08:42:56.399Z,62.30
2018-04-06T08:45:24.364Z,72.20
2018-04-06T08:47:52.046Z,72.70
2018-04-06T08:50:19.720Z,64.70
2018-04-06T08:52:47.359Z,70.00
2018-04-06T08:55:15.410Z,62.80
2018-04-06T08:57:43.096Z,71.00
2018-04-06T09:00:10.737Z,71.80
2018-04-06T09:02:38.805Z,59.20
2018-04-06T09:05:06.435Z,68.10
2018-04-06T09:07:35.210Z,57.90
2018-04-06T09:10:03.017Z,67.90
2018-04-06T09:12:30.721Z,69.30
2018-04-06T09:14:59.158Z,56.90
2018-04-06T09:17:27.198Z,59.00
2018-04-06T09:19:55.688Z,56.10
2018-04-06T09:22:24.084Z,57.00
2018-04-06T09:24:51.709Z,65.90
2018-04-06T09:27:19.426Z,63.30
2018-04-06T09:29:47.092Z,61.70
2018-04-06T09:32:14.802Z,63.60
2018-04-06T09:34:43.955Z,54.50
2018-04-06T09:37:11.648Z,62.50
2018-04-06T09:39:40.397Z,52.80
2018-04-06T09:42:08.836Z,53.20
2018-04-06T09:44:37.235Z,54.20
2018-04-06T09:47:04.909Z,59.00
2018-04-06T09:49:32.979Z,48.90
2018-04-06T09:52:01.890Z,50.60
2018-04-06T09:54:29.567Z,54.90
2018-04-06T09:56:57.190Z,57.60
2018-04-06T09:59:24.872Z,57.80
2018-04-06T10:01:56.330Z,56.20
2018-04-06T10:04:25.535Z,48.90
2018-04-06T10:06:53.182Z,55.80
2018-04-06T10:09:20.806Z,55.80
2018-04-06T10:11:49.221Z,46.40
2018-04-06T10:14:16.844Z,55.50
2018-04-06T10:16:45.310Z,46.80
2018-04-06T10:19:12.949Z,53.40
2018-04-06T10:21:40.602Z,52.40
2018-04-06T10:24:08.265Z,50.90
2018-04-06T10:26:35.922Z,47.00
2018-04-06T10:29:03.557Z,50.30
2018-04-06T10:31:31.210Z,47.80
2018-04-06T10:33:59.633Z,38.70
2018-04-06T10:36:27.761Z,39.00
2018-04-06T10:38:55.380Z,44.60
2018-04-06T10:41:24.565Z,39.30
2018-04-06T10:43:52.352Z,46.00
2018-04-06T10:46:20.857Z,38.00
2018-04-06T10:48:50.022Z,36.20
2018-04-06T10:51:17.724Z,49.50
2018-04-06T10:53:45.370Z,49.80
2018-04-06T10:56:13.446Z,39.50
2018-04-06T10:58:41.866Z,40.20
2018-04-06T11:01:09.651Z,47.40
2018-04-06T11:03:37.288Z,42.80
2018-04-06T11:06:06.437Z,34.70
2018-04-06T11:08:34.892Z,35.30
2018-04-06T11:11:02.588Z,43.70
2018-04-06T11:13:30.242Z,42.60
2018-04-06T11:15:58.250Z,36.60
2018-04-06T11:18:25.925Z,43.50
2018-04-06T11:20:53.629Z,44.10
2018-04-06T11:23:21.858Z,41.60
2018-04-06T11:25:49.554Z,41.90
2018-04-06T11:28:17.228Z,36.60
2018-04-06T11:30:44.863Z,39.20
2018-04-06T11:33:12.547Z,40.30
2018-04-06T11:35:40.190Z,38.90
2018-04-06T11:38:07.868Z,39.50
2018-04-06T11:40:37.052Z,33.60
2018-04-06T11:43:05.169Z,33.80
2018-04-06T11:45:33.600Z,33.30
2018-04-06T11:48:01.281Z,37.30
2018-04-06T11:50:29.422Z,32.30
2018-04-06T11:52:57.044Z,39.40
2018-04-06T11:55:25.137Z,35.70
2018-04-06T11:57:52.801Z,39.20
2018-04-06T12:00:20.516Z,39.60
2018-04-06T12:02:48.190Z,39.60
2018-04-06T12:05:15.870Z,38.40
2018-04-06T12:07:44.364Z,35.40
2018-04-06T12:10:11.975Z,41.70
2018-04-06T12:12:39.655Z,42.30
2018-04-06T12:15:07.672Z,34.70
2018-04-06T12:17:36.131Z,34.50
2018-04-06T12:20:03.848Z,37.00
2018-04-06T12:22:32.265Z,35.90
2018-04-06T12:25:01.403Z,34.80
2018-04-06T12:27:29.130Z,41.40
2018-04-06T12:29:57.512Z,36.30
2018-04-06T12:32:25.186Z,43.50
2018-04-06T12:34:52.811Z,42.90
2018-04-06T12:37:20.490Z,43.20
2018-04-06T12:39:48.904Z,37.40
2018-04-06T12:42:16.559Z,42.30
2018-04-06T12:44:44.211Z,43.20
2018-04-06T12:47:11.853Z,41.30
2018-04-06T12:49:40.285Z,35.80
2018-04-06T12:52:08.324Z,36.20
2018-04-06T12:54:36.738Z,36.00
2018-04-06T12:57:05.206Z,36.40
2018-04-06T12:59:32.886Z,42.70
2018-04-06T13:02:00.532Z,41.90
2018-04-06T13:04:28.209Z,41.60
2018-04-06T13:06:55.909Z,40.30
2018-04-06T13:09:24.331Z,33.90
2018-04-06T13:11:51.950Z,38.10
2018-04-06T13:14:20.389Z,33.40
2018-04-06T13:16:48.037Z,38.70
2018-04-06T13:19:15.680Z,39.30
2018-04-06T13:21:43.384Z,41.10
2018-04-06T13:24:11.430Z,34.20
2018-04-06T13:26:39.122Z,40.00
2018-04-06T13:29:06.812Z,39.90
2018-04-06T13:31:35.996Z,33.00
2018-04-06T13:34:04.072Z,34.50
2018-04-06T13:36:32.518Z,33.90
2018-04-06T13:39:00.173Z,39.00
2018-04-06T13:41:27.839Z,35.30
2018-04-06T13:43:55.487Z,37.50
2018-04-06T13:46:24.271Z,30.00
2018-04-06T13:48:51.969Z,35.30
2018-04-06T13:51:19.618Z,36.40
2018-04-06T13:53:47.680Z,29.70
2018-04-06T13:56:15.358Z,35.00
2018-04-06T13:58:43.821Z,28.50
2018-04-06T14:01:11.514Z,35.30
2018-04-06T14:03:39.980Z,29.50
2018-04-06T14:06:07.634Z,31.70
2018-04-06T14:08:35.669Z,26.60
2018-04-06T14:11:04.120Z,27.30
2018-04-06T14:13:32.911Z,27.20
2018-04-06T14:16:00.584Z,32.60
2018-04-06T14:18:29.041Z,26.40
2018-04-06T14:20:57.548Z,26.60
2018-04-06T14:23:25.581Z,25.90
2018-04-06T14:25:53.630Z,29.90
2018-04-06T14:28:21.254Z,30.70
2018-04-06T14:30:49.650Z,25.50
2018-04-06T14:33:17.712Z,24.70
2018-04-06T14:35:46.125Z,26.10
2018-04-06T14:38:13.782Z,28.60
2018-04-06T14:40:41.488Z,27.00
2018-04-06T14:43:09.227Z,27.60
2018-04-06T14:45:36.867Z,27.90
2018-04-06T14:48:04.505Z,27.70
2018-04-06T14:50:33.738Z,23.20
2018-04-06T14:53:02.132Z,23.70
2018-04-06T14:55:29.748Z,25.90
2018-04-06T14:57:58.381Z,26.30
2018-04-06T15:00:26.427Z,22.30
2018-04-06T15:02:54.900Z,21.30
2018-04-06T15:05:22.528Z,24.50
2018-04-06T15:10:19.156Z,24.80
2018-04-06T15:12:47.595Z,20.00
2018-04-06T15:15:15.211Z,24.30
2018-04-06T15:17:42.889Z,23.30
2018-04-06T15:20:11.340Z,21.20
2018-04-06T15:22:38.988Z,23.80
2018-04-06T15:25:06.623Z,23.10
2018-04-06T15:27:34.309Z,22.90
2018-04-06T15:30:01.958Z,23.30
2018-04-06T15:32:29.604Z,23.90
2018-04-06T15:34:57.251Z,23.00
2018-04-06T15:37:24.892Z,23.10
2018-04-06T15:42:21.588Z,23.00
2018-04-06T15:44:49.249Z,22.60
2018-04-06T15:47:16.980Z,22.70
2018-04-06T15:49:45.417Z,20.00
2018-04-06T15:52:13.083Z,23.60
2018-04-06T15:54:40.695Z,23.50
2018-04-06T15:57:08.326Z,23.10
2018-04-06T15:59:37.519Z,19.90
2018-04-06T16:02:05.240Z,20.30
2018-04-06T16:04:32.939Z,21.70
2018-04-06T16:07:00.598Z,23.80
2018-04-06T16:09:28.216Z,24.60
2018-04-06T16:11:55.908Z,24.20
2018-04-06T16:14:23.645Z,23.40
2018-04-06T16:16:51.276Z,24.40
2018-04-06T16:19:19.349Z,21.60
2018-04-06T16:21:47.449Z,22.70
2018-04-06T16:24:15.109Z,27.00
2018-04-06T16:26:43.501Z,25.00
2018-04-06T16:29:11.188Z,29.00
2018-04-06T16:31:39.626Z,25.80
2018-04-06T16:34:07.254Z,29.20
2018-04-06T16:36:35.370Z,25.40
2018-04-06T16:39:03.167Z,29.20
2018-04-06T16:41:30.829Z,29.50
2018-04-06T16:43:58.512Z,29.00
2018-04-06T16:46:27.043Z,25.00
2018-04-06T16:48:55.489Z,23.20
2018-04-06T16:51:23.945Z,23.30
2018-04-06T16:53:51.586Z,28.60
2018-04-06T16:56:19.694Z,28.40
2018-04-06T16:58:48.497Z,28.30
2018-04-06T17:01:16.129Z,32.10
2018-04-06T17:03:45.280Z,29.50
2018-04-06T17:06:12.920Z,32.10
2018-04-06T17:08:40.619Z,32.60
2018-04-06T17:11:08.232Z,34.30
2018-04-06T17:13:37.933Z,33.30
2018-04-06T17:16:05.566Z,41.70
2018-04-06T17:18:33.200Z,42.00
2018-04-06T17:21:00.873Z,47.60
2018-04-06T17:23:28.568Z,47.20
2018-04-06T17:25:56.215Z,50.80
2018-04-06T17:28:25.339Z,45.40
2018-04-06T17:30:52.996Z,52.80
2018-04-06T17:33:21.375Z,45.90
2018-04-06T17:35:49.024Z,52.80
2018-04-06T17:38:17.036Z,47.80
2018-04-06T17:40:44.677Z,54.30
2018-04-06T17:43:14.235Z,47.40
2018-04-06T17:45:42.260Z,48.00
2018-04-06T17:48:10.632Z,48.30
2018-04-06T17:50:38.276Z,56.70
2018-04-06T17:53:06.701Z,49.60
2018-04-06T17:55:35.142Z,50.00
2018-04-06T17:58:03.192Z,50.50
2018-04-06T18:00:31.667Z,50.80
2018-04-06T18:02:59.728Z,51.10
2018-04-06T18:05:27.796Z,51.20
2018-04-06T18:07:55.435Z,60.70
2018-04-06T18:10:23.095Z,61.00
2018-04-06T18:12:51.159Z,52.80
2018-04-06T18:15:19.584Z,53.50
2018-04-06T18:17:48.356Z,52.30
2018-04-06T18:20:16.009Z,61.30
2018-04-06T18:22:43.667Z,62.30
2018-04-06T18:25:12.091Z,53.60
2018-04-06T18:27:40.554Z,53.20
2018-04-06T18:30:08.644Z,53.40
2018-04-06T18:32:37.026Z,53.50
2018-04-06T18:35:04.704Z,63.10
2018-04-06T18:37:33.461Z,53.60
2018-04-06T18:40:02.045Z,54.20
2018-04-06T18:42:29.670Z,63.90
2018-04-06T18:44:57.764Z,54.60
2018-04-06T18:47:26.604Z,55.00
2018-04-06T18:49:55.026Z,54.80
2018-04-06T18:52:22.664Z,64.50
2018-04-06T18:54:50.305Z,65.00
2018-04-06T18:57:19.963Z,55.20
2018-04-06T18:59:48.420Z,55.00
2018-04-06T19:02:16.520Z,55.40
2018-04-06T19:04:44.208Z,65.50
2018-04-06T19:07:13.031Z,57.40
2018-04-06T19:09:41.439Z,57.20
2018-04-06T19:12:10.243Z,57.00
2018-04-06T19:14:38.624Z,57.20
2018-04-06T19:17:06.739Z,60.20
2018-04-06T19:19:35.287Z,57.70
2018-04-06T19:22:02.967Z,68.90
2018-04-06T19:24:31.451Z,58.00
2018-04-06T19:26:59.181Z,69.70
2018-04-06T19:29:27.195Z,62.70
2018-04-06T19:31:55.233Z,62.30
2018-04-06T19:34:22.876Z,71.80
2018-04-06T19:36:51.702Z,60.00
2018-04-06T19:39:19.546Z,71.70
2018-04-06T19:41:47.921Z,61.10
2018-04-06T19:44:16.181Z,61.80
2018-04-06T19:46:43.805Z,74.00
2018-04-06T19:49:12.640Z,61.60
2018-04-06T19:51:41.238Z,61.60
2018-04-06T19:54:08.868Z,74.20
2018-04-06T19:56:37.298Z,63.00
2018-04-06T19:59:05.409Z,65.00
2018-04-06T20:01:33.081Z,74.40
2018-04-06T20:04:00.724Z,73.90
2018-04-06T20:06:29.903Z,60.50
2018-04-06T20:08:58.403Z,59.60
2018-04-06T20:11:26.474Z,63.20
2018-04-06T20:13:54.880Z,58.80
2018-04-06T20:16:22.526Z,67.90
2018-04-06T20:18:50.200Z,70.40
2018-04-06T20:21:17.822Z,64.40
2018-04-06T20:23:45.434Z,70.50
2018-04-06T20:26:13.121Z,70.40
2018-04-06T20:28:40.819Z,70.30
2018-04-06T20:31:09.321Z,58.20
2018-04-06T20:33:37.762Z,58.20
2018-04-06T20:36:05.833Z,58.10
2018-04-06T20:38:33.528Z,70.50
2018-04-06T20:41:01.174Z,70.60
2018-04-06T20:43:29.216Z,61.70
2018-04-06T20:48:26.295Z,59.20
2018-04-06T20:50:54.443Z,60.60
2018-04-06T20:53:22.440Z,59.10
2018-04-06T20:55:50.455Z,61.70
2018-04-06T20:58:19.624Z,59.80
2018-04-06T21:03:16.696Z,60.30
2018-04-06T21:08:13.392Z,71.10
2018-04-06T21:10:43.334Z,62.20
2018-04-06T21:15:40.320Z,66.10
2018-04-06T21:18:08.364Z,65.40
2018-04-06T21:20:36.025Z,79.10
2018-04-06T21:23:04.472Z,66.70
2018-04-06T21:25:32.936Z,67.20
2018-04-06T21:28:00.592Z,80.20
2018-04-06T21:30:28.313Z,79.50
2018-04-06T21:32:56.763Z,64.90
2018-04-06T21:35:25.184Z,63.20
2018-04-06T21:37:53.292Z,63.80
2018-04-06T21:40:21.746Z,61.20
2018-04-06T21:42:49.804Z,60.90
2018-04-06T21:45:18.277Z,60.60
2018-04-06T21:50:14.969Z,73.60
2018-04-06T21:52:43.373Z,60.90
2018-04-06T21:55:11.103Z,73.20
2018-04-06T22:00:08.639Z,59.90
2018-04-06T22:02:36.749Z,60.80
2018-04-06T22:05:04.849Z,59.90
2018-04-06T22:07:32.507Z,73.30
2018-04-06T22:10:00.558Z,61.10
2018-04-06T22:12:29.363Z,59.90
2018-04-06T22:14:56.985Z,72.30
2018-04-06T22:17:25.039Z,66.70
2018-04-06T22:19:52.693Z,72.50
2018-04-06T22:22:20.357Z,72.40
2018-04-06T22:24:48.831Z,59.10
2018-04-06T22:27:16.473Z,72.80
2018-04-06T22:29:44.546Z,72.90
2018-04-06T22:32:12.209Z,69.60
2018-04-06T22:34:40.978Z,60.20
2018-04-06T22:37:08.612Z,71.90
2018-04-06T22:39:36.666Z,58.90
2018-04-06T22:42:04.378Z,72.10
2018-04-06T22:44:32.036Z,71.40
2018-04-06T22:47:00.081Z,61.40
2018-04-06T22:49:27.805Z,65.00
2018-04-06T22:51:55.481Z,71.50
2018-04-06T22:54:23.139Z,68.80
2018-04-06T22:56:51.214Z,61.80
2018-04-06T22:59:18.833Z,71.00
2018-04-06T23:01:46.517Z,71.20
2018-04-06T23:04:14.637Z,61.50
2018-04-06T23:06:43.819Z,57.90
2018-04-06T23:09:12.234Z,57.70
2018-04-06T23:11:40.624Z,57.70
2018-04-06T23:14:09.040Z,57.70
2018-04-06T23:16:37.479Z,57.90
2018-04-06T23:19:05.973Z,57.90
2018-04-06T23:21:33.979Z,57.80
2018-04-06T23:24:02.364Z,58.10
2018-04-06T23:26:30.879Z,58.30
2018-04-06T23:28:59.260Z,58.30
2018-04-06T23:31:27.660Z,58.40
2018-04-06T23:33:56.146Z,58.60
2018-04-06T23:36:24.187Z,59.00
2018-04-06T23:38:53.305Z,59.00
2018-04-06T23:41:20.962Z,68.70
2018-04-06T23:43:49.753Z,59.20
2018-04-06T23:46:17.394Z,72.00
2018-04-06T23:48:45.818Z,59.90
2018-04-06T23:51:14.288Z,59.30
2018-04-06T23:53:42.673Z,59.20
2018-04-06T23:56:10.284Z,72.20
2018-04-06T23:58:39.489Z,58.90
